createdAt,value
2018-02-03T00:02:14.280Z,1.10
2018-02-03T00:04:40.508Z,1.40
2018-02-03T00:07:06.744Z,1.23
2018-02-03T00:09:33.049Z,1.47
2018-02-03T00:11:59.260Z,1.23
2018-02-03T00:14:25.668Z,1.40
2018-02-03T00:16:52.123Z,1.10
2018-02-03T00:19:18.634Z,1.20
2018-02-03T00:21:44.848Z,1.10
2018-02-03T00:24:11.438Z,1.10
2018-02-03T00:26:37.730Z,1.10
2018-02-03T00:29:03.922Z,1.80
2018-02-03T00:31:30.524Z,1.10
2018-02-03T00:33:56.805Z,1.10
2018-02-03T00:36:23.048Z,1.13
2018-02-03T00:38:49.245Z,1.30
2018-02-03T00:41:15.454Z,1.00
2018-02-03T00:43:41.986Z,1.10
2018-02-03T00:46:08.199Z,1.30
2018-02-03T00:48:34.407Z,1.90
2018-02-03T00:51:00.671Z,1.20
2018-02-03T00:53:26.894Z,1.20
2018-02-03T00:55:53.411Z,1.50
2018-02-03T00:58:19.677Z,1.20
2018-02-03T01:00:45.890Z,1.37
2018-02-03T01:03:12.111Z,1.20
2018-02-03T01:05:38.392Z,1.37
2018-02-03T01:08:04.563Z,1.33
2018-02-03T01:10:30.781Z,1.33
2018-02-03T01:12:57.323Z,1.60
2018-02-03T01:15:23.519Z,1.40
2018-02-03T01:17:49.980Z,1.40
2018-02-03T01:20:16.218Z,1.10
2018-02-03T01:22:42.431Z,1.37
2018-02-03T01:25:08.987Z,1.07
2018-02-03T01:27:35.252Z,1.33
2018-02-03T01:30:01.465Z,1.50
2018-02-03T01:32:27.635Z,1.23
2018-02-03T01:34:53.998Z,1.20
2018-02-03T01:37:20.189Z,1.23
2018-02-03T01:39:46.438Z,1.20
2018-02-03T01:42:12.685Z,1.40
2018-02-03T01:44:38.878Z,1.33
2018-02-03T01:47:05.075Z,1.27
2018-02-03T01:49:31.339Z,1.73
2018-02-03T01:51:57.540Z,1.37
2018-02-03T01:54:23.737Z,1.40
2018-02-03T01:56:50.250Z,1.23
2018-02-03T01:59:16.456Z,1.23
2018-02-03T02:01:43.028Z,1.20
2018-02-03T02:04:09.242Z,1.20
2018-02-03T02:06:35.444Z,1.50
2018-02-03T02:09:02.021Z,1.20
2018-02-03T02:11:28.301Z,1.40
2018-02-03T02:13:54.506Z,1.03
2018-02-03T02:16:20.860Z,1.37
2018-02-03T02:18:47.089Z,1.10
2018-02-03T02:21:13.302Z,1.30
2018-02-03T02:23:39.596Z,1.00
2018-02-03T02:26:05.842Z,1.40
2018-02-03T02:28:32.026Z,1.13
2018-02-03T02:30:58.241Z,1.20
2018-02-03T02:33:24.477Z,1.00
2018-02-03T02:35:51.027Z,1.33
2018-02-03T02:38:17.611Z,1.20
2018-02-03T02:40:44.098Z,1.50
2018-02-03T02:43:10.320Z,1.80
2018-02-03T02:45:36.573Z,1.30
2018-02-03T02:48:02.765Z,1.40
2018-02-03T02:50:29.011Z,1.50
2018-02-03T02:52:55.290Z,1.20
2018-02-03T02:55:21.536Z,1.30
2018-02-03T02:57:48.408Z,1.27
2018-02-03T03:00:14.613Z,1.10
2018-02-03T03:02:40.805Z,1.20
2018-02-03T03:05:07.486Z,1.40
2018-02-03T03:07:33.721Z,1.40
2018-02-03T03:09:59.959Z,1.33
2018-02-03T03:12:26.230Z,1.37
2018-02-03T03:14:52.451Z,1.20
2018-02-03T03:17:18.666Z,1.23
2018-02-03T03:19:44.871Z,1.20
2018-02-03T03:22:11.083Z,1.30
2018-02-03T03:24:37.643Z,1.13
2018-02-03T03:27:03.838Z,1.23
2018-02-03T03:29:30.039Z,1.20
2018-02-03T03:31:56.392Z,1.43
2018-02-03T03:34:22.606Z,1.40
2018-02-03T03:36:48.901Z,1.30
2018-02-03T03:39:15.121Z,1.17
2018-02-03T03:41:41.292Z,1.20
2018-02-03T03:44:08.188Z,1.30
2018-02-03T03:46:34.682Z,1.40
2018-02-03T03:49:07.789Z,1.20
2018-02-03T03:51:34.063Z,1.03
2018-02-03T03:54:00.251Z,1.10
2018-02-03T03:56:26.428Z,1.30
2018-02-03T03:58:52.703Z,1.10
2018-02-03T04:01:19.260Z,1.10
2018-02-03T04:03:52.440Z,1.27
2018-02-03T04:06:18.666Z,1.30
2018-02-03T04:08:44.957Z,1.50
2018-02-03T04:11:11.208Z,1.17
2018-02-03T04:13:37.468Z,1.27
2018-02-03T04:16:03.668Z,1.20
2018-02-03T04:18:29.945Z,1.20
2018-02-03T04:20:56.121Z,1.20
2018-02-03T04:23:22.326Z,1.10
2018-02-03T04:25:48.963Z,1.07
2018-02-03T04:28:15.189Z,1.30
2018-02-03T04:30:41.880Z,1.30
2018-02-03T04:33:08.085Z,1.10
2018-02-03T04:35:34.685Z,1.30
2018-02-03T04:38:00.917Z,1.10
2018-02-03T04:40:27.127Z,1.10
2018-02-03T04:42:53.636Z,1.33
2018-02-03T04:45:19.886Z,1.27
2018-02-03T04:47:46.391Z,1.60
2018-02-03T04:50:12.706Z,1.40
2018-02-03T04:52:38.906Z,1.20
2018-02-03T04:55:05.143Z,1.20
2018-02-03T04:57:31.720Z,1.20
2018-02-03T04:59:58.348Z,1.10
2018-02-03T05:02:24.556Z,1.03
2018-02-03T05:04:50.791Z,1.27
2018-02-03T05:07:17.065Z,1.30
2018-02-03T05:09:43.239Z,1.10
2018-02-03T05:12:09.470Z,1.20
2018-02-03T05:14:42.662Z,1.20
2018-02-03T05:17:08.916Z,1.10
2018-02-03T05:19:35.148Z,1.63
2018-02-03T05:22:01.421Z,1.07
2018-02-03T05:24:27.636Z,1.20
2018-02-03T05:26:53.863Z,1.17
2018-02-03T05:29:20.131Z,1.10
2018-02-03T05:31:46.597Z,1.00
2018-02-03T05:34:12.784Z,1.13
2018-02-03T05:36:39.559Z,1.10
2018-02-03T05:39:05.793Z,1.20
2018-02-03T05:41:32.319Z,1.20
2018-02-03T05:43:58.854Z,1.20
2018-02-03T05:46:25.081Z,1.20
2018-02-03T05:48:51.483Z,1.03
2018-02-03T05:51:17.694Z,1.10
2018-02-03T05:53:43.899Z,1.20
2018-02-03T05:56:10.164Z,1.10
2018-02-03T05:58:36.379Z,1.10
2018-02-03T06:01:02.971Z,1.10
2018-02-03T06:03:29.155Z,1.30
2018-02-03T06:05:55.411Z,1.30
2018-02-03T06:08:21.643Z,1.23
2018-02-03T06:10:48.188Z,1.17
2018-02-03T06:13:14.451Z,1.20
2018-02-03T06:15:40.708Z,1.10
2018-02-03T06:18:06.903Z,1.20
2018-02-03T06:20:33.200Z,1.00
2018-02-03T06:22:59.425Z,1.23
2018-02-03T06:25:25.647Z,1.20
2018-02-03T06:27:51.853Z,1.00
2018-02-03T06:30:18.040Z,1.23
2018-02-03T06:32:44.592Z,0.90
2018-02-03T06:35:10.814Z,1.10
2018-02-03T06:37:37.305Z,1.33
2018-02-03T06:40:03.556Z,1.10
2018-02-03T06:42:29.787Z,1.00
2018-02-03T06:44:56.349Z,1.27
2018-02-03T06:47:22.641Z,1.10
2018-02-03T06:49:48.820Z,0.90
2018-02-03T06:52:15.021Z,0.90
2018-02-03T06:54:41.234Z,1.17
2018-02-03T06:57:07.491Z,1.23
2018-02-03T06:59:34.084Z,1.20
2018-02-03T07:02:00.283Z,1.27
2018-02-03T07:04:26.564Z,1.00
2018-02-03T07:06:53.039Z,1.20
2018-02-03T07:09:19.316Z,1.20
2018-02-03T07:11:45.626Z,1.20
2018-02-03T07:14:11.852Z,1.20
2018-02-03T07:16:38.099Z,1.10
2018-02-03T07:19:04.619Z,1.00
2018-02-03T07:21:30.795Z,1.07
2018-02-03T07:23:57.392Z,1.20
2018-02-03T07:26:24.028Z,1.33
2018-02-03T07:28:50.312Z,1.13
2018-02-03T07:31:16.535Z,1.10
2018-02-03T07:33:42.813Z,1.33
2018-02-03T07:36:09.016Z,1.10
2018-02-03T07:38:35.245Z,1.00
2018-02-03T07:41:01.480Z,0.90
2018-02-03T07:43:27.704Z,1.37
2018-02-03T07:45:53.958Z,1.20
2018-02-03T07:48:20.151Z,1.20
2018-02-03T07:50:46.346Z,1.23
2018-02-03T07:53:12.627Z,1.30
2018-02-03T07:55:39.065Z,1.10
2018-02-03T07:58:05.269Z,0.90
2018-02-03T08:00:31.506Z,1.17
2018-02-03T08:02:57.953Z,1.17
2018-02-03T08:05:24.275Z,1.30
2018-02-03T08:07:50.825Z,1.07
2018-02-03T08:10:17.017Z,1.10
2018-02-03T08:12:43.246Z,1.00
2018-02-03T08:15:09.583Z,1.17
2018-02-03T08:17:35.825Z,1.17
2018-02-03T08:20:02.472Z,1.17
2018-02-03T08:22:28.695Z,1.10
2018-02-03T08:24:54.917Z,1.20
2018-02-03T08:27:21.149Z,1.20
2018-02-03T08:29:47.370Z,0.90
2018-02-03T08:32:13.579Z,1.30
2018-02-03T08:34:40.158Z,1.30
2018-02-03T08:37:06.398Z,1.33
2018-02-03T08:39:32.669Z,1.10
2018-02-03T08:41:58.899Z,1.00
2018-02-03T08:44:25.133Z,1.00
2018-02-03T08:46:51.358Z,1.00
2018-02-03T08:49:17.565Z,1.10
2018-02-03T08:51:44.133Z,1.00
2018-02-03T08:54:10.368Z,1.10
2018-02-03T08:56:36.617Z,1.33
2018-02-03T08:59:02.898Z,1.10
2018-02-03T09:01:29.093Z,0.90
2018-02-03T09:03:55.276Z,1.30
2018-02-03T09:06:21.571Z,1.00
2018-02-03T09:08:47.801Z,1.00
2018-02-03T09:11:13.987Z,1.10
2018-02-03T09:13:40.232Z,1.33
2018-02-03T09:16:06.453Z,1.20
2018-02-03T09:18:33.001Z,1.20
2018-02-03T09:20:59.186Z,1.07
2018-02-03T09:23:25.733Z,0.90
2018-02-03T09:25:52.328Z,1.00
2018-02-03T09:28:18.808Z,1.10
2018-02-03T09:30:45.016Z,1.20
2018-02-03T09:33:11.234Z,1.20
2018-02-03T09:35:37.489Z,1.00
2018-02-03T09:38:04.079Z,1.00
2018-02-03T09:40:30.282Z,1.00
2018-02-03T09:42:56.796Z,1.00
2018-02-03T09:45:23.042Z,1.07
2018-02-03T09:47:49.217Z,1.10
2018-02-03T09:50:15.495Z,1.20
2018-02-03T09:52:41.757Z,1.30
2018-02-03T09:55:08.245Z,1.10
2018-02-03T09:57:34.884Z,1.07
2018-02-03T10:00:01.120Z,0.90
2018-02-03T10:02:27.364Z,1.13
2018-02-03T10:04:53.639Z,1.00
2018-02-03T10:07:19.815Z,0.93
2018-02-03T10:09:46.427Z,1.20
2018-02-03T10:12:12.688Z,1.23
2018-02-03T10:14:38.941Z,0.93
2018-02-03T10:17:05.286Z,1.00
2018-02-03T10:19:31.544Z,1.00
2018-02-03T10:21:57.764Z,1.17
2018-02-03T10:24:23.965Z,1.10
2018-02-03T10:26:50.252Z,1.00
2018-02-03T10:29:16.775Z,1.30
2018-02-03T10:31:43.001Z,1.10
2018-02-03T10:34:09.345Z,1.00
2018-02-03T10:36:35.571Z,1.30
2018-02-03T10:39:02.132Z,0.97
2018-02-03T10:41:28.349Z,1.00
2018-02-03T10:43:54.569Z,1.00
2018-02-03T10:46:21.078Z,1.10
2018-02-03T10:48:47.313Z,1.17
2018-02-03T10:51:13.502Z,1.00
2018-02-03T10:53:39.785Z,1.10
2018-02-03T10:56:06.296Z,1.10
2018-02-03T10:58:32.570Z,0.90
2018-02-03T11:01:11.206Z,1.00
2018-02-03T11:03:37.437Z,1.40
2018-02-03T11:06:04.019Z,1.10
2018-02-03T11:08:30.664Z,1.07
2018-02-03T11:10:57.190Z,1.10
2018-02-03T11:13:23.381Z,1.10
2018-02-03T11:15:49.944Z,1.40
2018-02-03T11:18:16.477Z,1.00
2018-02-03T11:20:43.066Z,1.20
2018-02-03T11:23:09.260Z,1.10
2018-02-03T11:25:35.543Z,1.00
2018-02-03T11:28:01.868Z,1.10
2018-02-03T11:30:28.078Z,1.10
2018-02-03T11:32:54.287Z,1.10
2018-02-03T11:35:20.523Z,1.27
2018-02-03T11:37:47.020Z,0.93
2018-02-03T11:40:13.310Z,1.00
2018-02-03T11:42:39.517Z,1.00
2018-02-03T11:45:05.794Z,1.00
2018-02-03T11:47:31.993Z,1.00
2018-02-03T11:49:58.206Z,1.10
2018-02-03T11:52:24.849Z,1.17
2018-02-03T11:54:51.118Z,1.10
2018-02-03T11:57:17.307Z,1.20
2018-02-03T11:59:44.725Z,1.10
2018-02-03T12:02:10.926Z,1.10
2018-02-03T12:04:37.487Z,1.10
2018-02-03T12:07:03.790Z,1.00
2018-02-03T12:09:30.040Z,1.10
2018-02-03T12:11:56.357Z,1.27
2018-02-03T12:14:22.590Z,1.00
2018-02-03T12:16:48.784Z,1.10
2018-02-03T12:19:15.477Z,1.23
2018-02-03T12:21:41.688Z,1.10
2018-02-03T12:24:07.916Z,0.90
2018-02-03T12:26:34.230Z,1.00
2018-02-03T12:29:00.479Z,1.17
2018-02-03T12:31:33.973Z,1.30
2018-02-03T12:34:00.235Z,1.13
2018-02-03T12:36:26.446Z,1.30
2018-02-03T12:38:52.966Z,1.10
2018-02-03T12:41:20.138Z,1.17
2018-02-03T12:43:46.656Z,1.00
2018-02-03T12:46:12.907Z,1.20
2018-02-03T12:48:39.157Z,1.00
2018-02-03T12:51:05.397Z,1.27
2018-02-03T12:53:31.638Z,0.80
2018-02-03T12:55:58.068Z,1.00
2018-02-03T12:58:24.325Z,0.90
2018-02-03T13:00:50.532Z,0.90
2018-02-03T13:03:16.717Z,1.00
2018-02-03T13:05:42.945Z,1.10
2018-02-03T13:08:09.141Z,1.10
2018-02-03T13:10:35.683Z,0.97
2018-02-03T13:13:01.936Z,1.00
2018-02-03T13:15:28.170Z,0.90
2018-02-03T13:17:54.463Z,1.20
2018-02-03T13:20:20.716Z,1.13
2018-02-03T13:22:46.967Z,0.90
2018-02-03T13:25:13.157Z,1.00
2018-02-03T13:27:39.359Z,1.30
2018-02-03T13:30:05.681Z,1.00
2018-02-03T13:32:31.915Z,1.00
2018-02-03T13:34:58.467Z,1.00
2018-02-03T13:37:24.654Z,1.00
2018-02-03T13:39:51.169Z,1.20
2018-02-03T13:42:17.681Z,1.40
2018-02-03T13:44:43.960Z,1.13
2018-02-03T13:47:10.225Z,1.10
2018-02-03T13:49:36.466Z,1.17
2018-02-03T13:52:03.096Z,1.10
2018-02-03T13:54:29.322Z,1.13
2018-02-03T13:56:55.745Z,1.10
2018-02-03T13:59:21.953Z,1.07
2018-02-03T14:01:48.191Z,1.30
2018-02-03T14:04:14.421Z,1.20
2018-02-03T14:06:40.592Z,1.17
2018-02-03T14:09:06.826Z,1.10
2018-02-03T14:11:33.000Z,1.20
2018-02-03T14:13:59.356Z,1.10
2018-02-03T14:16:25.889Z,1.23
2018-02-03T14:18:52.115Z,1.10
2018-02-03T14:21:18.391Z,1.03
2018-02-03T14:23:50.553Z,1.00
2018-02-03T14:26:16.832Z,1.13
2018-02-03T14:28:43.373Z,1.03
2018-02-03T14:31:09.671Z,1.07
2018-02-03T14:33:35.896Z,1.10
2018-02-03T14:36:02.182Z,1.10
2018-02-03T14:38:28.438Z,1.10
2018-02-03T14:40:54.619Z,1.00
2018-02-03T14:43:20.891Z,1.20
2018-02-03T14:45:47.160Z,1.00
2018-02-03T14:48:13.705Z,1.20
2018-02-03T14:50:40.006Z,1.10
2018-02-03T14:53:06.198Z,1.23
2018-02-03T14:55:32.414Z,0.97
2018-02-03T14:57:58.659Z,1.00
2018-02-03T15:00:24.868Z,1.40
2018-02-03T15:02:51.155Z,1.10
2018-02-03T15:05:17.361Z,1.20
2018-02-03T15:07:43.594Z,1.10
2018-02-03T15:10:09.859Z,1.00
2018-02-03T15:12:36.060Z,1.27
2018-02-03T15:15:02.255Z,1.07
2018-02-03T15:17:28.864Z,1.17
2018-02-03T15:19:55.160Z,1.10
2018-02-03T15:22:21.437Z,1.00
2018-02-03T15:24:47.645Z,1.03
2018-02-03T15:27:13.880Z,0.90
2018-02-03T15:29:40.077Z,1.03
2018-02-03T15:32:06.312Z,0.90
2018-02-03T15:34:32.576Z,1.20
2018-02-03T15:36:58.805Z,1.07
2018-02-03T15:39:25.033Z,1.10
2018-02-03T15:41:51.548Z,1.10
2018-02-03T15:44:17.846Z,0.90
2018-02-03T15:46:44.024Z,1.00
2018-02-03T15:49:10.264Z,1.20
2018-02-03T15:51:36.595Z,1.10
2018-02-03T15:54:02.793Z,1.20
2018-02-03T15:56:29.067Z,1.00
2018-02-03T15:58:55.287Z,1.00
2018-02-03T16:01:21.788Z,1.10
2018-02-03T16:03:48.016Z,1.23
2018-02-03T16:06:14.257Z,0.90
2018-02-03T16:08:40.428Z,1.10
2018-02-03T16:11:06.649Z,1.20
2018-02-03T16:13:33.189Z,0.90
2018-02-03T16:15:59.451Z,1.07
2018-02-03T16:18:25.689Z,1.20
2018-02-03T16:20:51.963Z,0.97
2018-02-03T16:23:18.566Z,1.10
2018-02-03T16:25:44.802Z,1.03
2018-02-03T16:28:11.131Z,1.30
2018-02-03T16:30:37.340Z,1.00
2018-02-03T16:33:03.536Z,1.17
2018-02-03T16:35:30.019Z,0.90
2018-02-03T16:37:56.585Z,0.90
2018-02-03T16:40:22.815Z,1.00
2018-02-03T16:42:49.091Z,1.10
2018-02-03T16:45:15.276Z,0.93
2018-02-03T16:47:41.485Z,1.00
2018-02-03T16:50:07.773Z,1.10
2018-02-03T16:52:34.111Z,1.20
2018-02-03T16:55:00.387Z,0.90
2018-02-03T16:57:26.594Z,1.10
2018-02-03T16:59:52.850Z,1.10
2018-02-03T17:02:19.053Z,1.00
2018-02-03T17:04:45.557Z,1.13
2018-02-03T17:07:11.858Z,1.17
2018-02-03T17:09:38.620Z,1.10
2018-02-03T17:12:04.844Z,1.17
2018-02-03T17:14:31.034Z,1.10
2018-02-03T17:16:57.314Z,1.03
2018-02-03T17:19:23.589Z,1.10
2018-02-03T17:21:49.767Z,1.10
2018-02-03T17:24:15.987Z,1.40
2018-02-03T17:26:42.540Z,1.20
2018-02-03T17:29:08.765Z,1.30
2018-02-03T17:31:35.222Z,1.00
2018-02-03T17:34:01.471Z,1.20
2018-02-03T17:36:33.696Z,0.90
2018-02-03T17:39:02.888Z,1.10
2018-02-03T17:41:29.075Z,1.27
2018-02-03T17:43:55.263Z,1.17
2018-02-03T17:46:27.580Z,1.13
2018-02-03T17:48:54.157Z,1.37
2018-02-03T17:51:20.350Z,1.00
2018-02-03T17:53:47.022Z,1.00
2018-02-03T17:56:19.339Z,1.10
2018-02-03T17:58:45.598Z,1.37
2018-02-03T18:01:11.825Z,1.20
2018-02-03T18:03:38.382Z,1.30
2018-02-03T18:06:04.548Z,1.20
2018-02-03T18:08:31.051Z,1.00
2018-02-03T18:10:57.280Z,1.10
2018-02-03T18:13:23.813Z,1.70
2018-02-03T18:15:50.346Z,1.00
2018-02-03T18:18:16.544Z,0.97
2018-02-03T18:20:43.112Z,1.00
2018-02-03T18:23:10.046Z,1.30
2018-02-03T18:25:36.243Z,1.33
2018-02-03T18:28:02.418Z,1.13
2018-02-03T18:30:28.944Z,1.20
2018-02-03T18:32:55.385Z,1.03
2018-02-03T18:35:21.654Z,1.00
2018-02-03T18:37:47.935Z,1.30
2018-02-03T18:40:14.143Z,1.33
2018-02-03T18:42:40.385Z,1.30
2018-02-03T18:45:07.017Z,1.00
2018-02-03T18:47:33.565Z,1.20
2018-02-03T18:49:59.796Z,1.20
2018-02-03T18:52:26.142Z,1.10
2018-02-03T18:54:52.659Z,1.13
2018-02-03T18:57:18.842Z,0.90
2018-02-03T18:59:45.095Z,1.13
2018-02-03T19:02:11.295Z,1.17
2018-02-03T19:04:37.477Z,1.10
2018-02-03T19:07:03.720Z,1.00
2018-02-03T19:09:29.923Z,1.20
2018-02-03T19:11:56.120Z,1.10
2018-02-03T19:14:22.360Z,1.20
2018-02-03T19:16:48.615Z,1.00
2018-02-03T19:19:14.848Z,1.20
2018-02-03T19:21:41.120Z,1.43
2018-02-03T19:24:07.406Z,1.10
2018-02-03T19:26:33.674Z,1.10
2018-02-03T19:28:59.937Z,1.20
2018-02-03T19:31:26.179Z,1.20
2018-02-03T19:33:52.724Z,1.30
2018-02-03T19:36:18.906Z,1.20
2018-02-03T19:38:45.540Z,1.30
2018-02-03T19:41:11.781Z,1.10
2018-02-03T19:43:38.351Z,1.30
2018-02-03T19:46:04.603Z,1.20
2018-02-03T19:48:30.826Z,1.47
2018-02-03T19:50:57.047Z,1.20
2018-02-03T19:53:23.807Z,1.10
2018-02-03T19:55:50.099Z,1.33
2018-02-03T19:58:16.282Z,1.47
2018-02-03T20:00:42.526Z,1.37
2018-02-03T20:03:08.748Z,1.20
2018-02-03T20:05:35.020Z,1.37
2018-02-03T20:08:01.645Z,1.47
2018-02-03T20:10:27.890Z,1.20
2018-02-03T20:12:54.083Z,1.47
2018-02-03T20:15:20.287Z,1.50
2018-02-03T20:17:46.823Z,1.47
2018-02-03T20:20:13.052Z,1.40
2018-02-03T20:22:39.230Z,1.40
2018-02-03T20:25:05.855Z,1.43
2018-02-03T20:27:32.044Z,1.53
2018-02-03T20:29:58.235Z,1.40
2018-02-03T20:32:24.527Z,1.47
2018-02-03T20:34:50.732Z,1.40
2018-02-03T20:37:16.941Z,1.43
2018-02-03T20:39:43.526Z,1.70
2018-02-03T20:42:09.724Z,1.60
2018-02-03T20:44:35.997Z,1.83
2018-02-03T20:47:02.265Z,1.80
2018-02-03T20:49:28.471Z,1.40
2018-02-03T20:51:54.723Z,1.80
2018-02-03T20:54:21.218Z,1.50
2018-02-03T20:56:47.411Z,1.50
2018-02-03T20:59:13.655Z,1.50
2018-02-03T21:01:40.203Z,1.30
2018-02-03T21:04:06.407Z,1.40
2018-02-03T21:06:32.645Z,1.73
2018-02-03T21:08:58.867Z,1.80
2018-02-03T21:11:25.423Z,1.50
2018-02-03T21:13:51.642Z,1.47
2018-02-03T21:16:17.825Z,1.50
2018-02-03T21:18:44.056Z,1.70
2018-02-03T21:21:10.244Z,1.70
2018-02-03T21:23:36.765Z,1.53
2018-02-03T21:26:03.414Z,1.97
2018-02-03T21:28:29.632Z,1.50
2018-02-03T21:30:55.835Z,1.90
2018-02-03T21:33:22.103Z,1.63
2018-02-03T21:35:48.332Z,2.03
2018-02-03T21:38:14.619Z,1.50
2018-02-03T21:40:41.500Z,1.80
2018-02-03T21:43:07.703Z,1.63
2018-02-03T21:45:33.889Z,1.60
2018-02-03T21:48:00.181Z,1.60
2018-02-03T21:50:26.372Z,1.70
2018-02-03T21:52:52.950Z,1.40
2018-02-03T21:55:19.215Z,1.60
2018-02-03T21:57:45.410Z,1.60
2018-02-03T22:00:11.997Z,1.43
2018-02-03T22:02:38.240Z,1.93
2018-02-03T22:05:04.432Z,1.63
2018-02-03T22:07:30.719Z,1.73
2018-02-03T22:09:57.024Z,1.67
2018-02-03T22:12:23.303Z,1.83
2018-02-03T22:14:49.569Z,1.70
2018-02-03T22:17:15.785Z,1.77
2018-02-03T22:19:42.024Z,1.73
2018-02-03T22:22:08.334Z,1.60
2018-02-03T22:24:34.540Z,1.30
2018-02-03T22:27:00.807Z,1.70
2018-02-03T22:29:27.391Z,1.93
2018-02-03T22:31:53.627Z,1.53
2018-02-03T22:34:19.838Z,1.87
2018-02-03T22:36:46.273Z,1.90
2018-02-03T22:39:12.867Z,1.70
2018-02-03T22:41:39.043Z,1.80
2018-02-03T22:44:05.268Z,2.03
2018-02-03T22:46:31.465Z,1.70
2018-02-03T22:48:57.996Z,1.80
2018-02-03T22:51:24.171Z,1.83
2018-02-03T22:53:50.359Z,1.80
2018-02-03T22:56:16.621Z,1.73
2018-02-03T22:58:42.828Z,1.40
2018-02-03T23:01:15.305Z,1.60
2018-02-03T23:03:41.590Z,1.70
2018-02-03T23:06:07.769Z,1.63
2018-02-03T23:08:33.984Z,1.60
2018-02-03T23:11:00.286Z,1.80
2018-02-03T23:13:26.581Z,1.90
2018-02-03T23:15:52.828Z,1.60
2018-02-03T23:18:19.025Z,1.53
2018-02-03T23:20:45.262Z,1.60
2018-02-03T23:23:11.440Z,1.97
2018-02-03T23:25:44.633Z,1.87
2018-02-03T23:28:10.920Z,1.70
2018-02-03T23:30:37.088Z,1.80
2018-02-03T23:33:03.372Z,1.73
2018-02-03T23:35:29.575Z,1.73
2018-02-03T23:37:55.816Z,1.70
2018-02-03T23:40:22.027Z,1.73
2018-02-03T23:42:48.579Z,1.70
2018-02-03T23:45:14.881Z,2.00
2018-02-03T23:47:41.128Z,1.80
2018-02-03T23:50:07.372Z,2.07
2018-02-03T23:52:33.651Z,1.97
2018-02-03T23:54:59.830Z,1.97
2018-02-03T23:57:26.010Z,1.60
2018-02-03T23:59:52.640Z,2.00
